EST weather

Estherville Municipal Airport
Estherville, Iowa, United States

Public forecast

Using degrees Fahrenheit for public forecast. Weather courtesy of forecast.io.

METAR (pilot weather report)

Report is more than 6 hours old.

Retrieved 2019/07/21 18:52 UTC (14 hours ago):

KEST 211852Z AUTO 04008KT 10SM CLR 24/18 A3009 RMK AO2 SLP183 T02390178

TAF (pilot weather forecast)

Closest forecast is Fort Dodge Regional Airport, 56.9 nm (105.3 km) SSE. Retrieved 2019/07/22 06:33 UTC (3 hours ago):

TAF KFOD 220530Z 2206/2306 34005KT P6SM FEW070